createdAt,value
2018-03-04T00:02:11.037Z,91.87
2018-03-04T00:04:38.652Z,70.43
2018-03-04T00:07:06.275Z,59.85
2018-03-04T00:09:33.911Z,58.10
2018-03-04T00:12:01.504Z,57.53
2018-03-04T00:14:29.111Z,66.82
2018-03-04T00:16:56.703Z,113.00
2018-03-04T00:19:24.348Z,116.18
2018-03-04T00:21:51.941Z,80.55
2018-03-04T00:24:19.604Z,57.05
2018-03-04T00:26:47.188Z,50.30
2018-03-04T00:29:14.800Z,52.03
2018-03-04T00:31:42.411Z,73.80
2018-03-04T00:34:09.999Z,41.92
2018-03-04T00:36:37.658Z,39.83
2018-03-04T00:39:05.276Z,63.58
2018-03-04T00:41:33.649Z,56.37
2018-03-04T00:44:01.271Z,72.47
2018-03-04T00:46:28.830Z,62.15
2018-03-04T00:48:56.440Z,63.13
2018-03-04T00:51:24.812Z,80.90
2018-03-04T00:53:52.411Z,97.70
2018-03-04T00:56:19.996Z,96.28
2018-03-04T00:58:47.584Z,83.97
2018-03-04T01:01:15.181Z,78.22
2018-03-04T01:03:42.774Z,55.28
2018-03-04T01:06:10.357Z,49.83
2018-03-04T01:08:37.929Z,60.65
2018-03-04T01:11:05.490Z,66.95
2018-03-04T01:13:33.888Z,80.07
2018-03-04T01:16:02.236Z,88.55
2018-03-04T01:18:29.811Z,177.27
2018-03-04T01:20:57.419Z,220.85
2018-03-04T01:23:24.967Z,191.12
2018-03-04T01:25:52.540Z,170.12
2018-03-04T01:28:20.143Z,101.55
2018-03-04T01:30:47.734Z,98.37
2018-03-04T01:33:15.340Z,89.82
2018-03-04T01:35:42.923Z,63.38
2018-03-04T01:38:10.535Z,48.72
2018-03-04T01:40:38.143Z,68.53
2018-03-04T01:43:05.724Z,57.30
2018-03-04T01:45:34.094Z,47.85
2018-03-04T01:48:02.478Z,54.33
2018-03-04T01:50:30.120Z,51.17
2018-03-04T01:52:57.743Z,59.35
2018-03-04T01:55:25.351Z,54.67
2018-03-04T01:57:53.727Z,69.10
2018-03-04T02:00:22.057Z,68.60
2018-03-04T02:02:49.687Z,84.90
2018-03-04T02:05:17.303Z,81.70
2018-03-04T02:07:44.951Z,79.53
2018-03-04T02:10:12.607Z,88.18
2018-03-04T02:12:40.187Z,90.38
2018-03-04T02:15:07.803Z,98.97
2018-03-04T02:17:35.446Z,88.95
2018-03-04T02:20:03.806Z,85.82
2018-03-04T02:22:31.439Z,71.57
2018-03-04T02:24:59.046Z,74.75
2018-03-04T02:27:26.632Z,73.28
2018-03-04T02:29:54.243Z,73.03
2018-03-04T02:32:21.835Z,74.35
2018-03-04T02:34:49.479Z,71.55
2018-03-04T02:37:17.862Z,80.38
2018-03-04T02:39:46.208Z,123.25
2018-03-04T02:42:13.825Z,108.75
2018-03-04T02:44:41.439Z,91.20
2018-03-04T02:47:09.050Z,84.07
2018-03-04T02:49:36.675Z,99.15
2018-03-04T02:52:05.032Z,111.68
2018-03-04T02:54:32.640Z,100.62
2018-03-04T02:57:00.294Z,100.00
2018-03-04T02:59:27.915Z,93.82
2018-03-04T03:01:55.555Z,81.63
2018-03-04T03:04:23.136Z,94.05
2018-03-04T03:06:50.770Z,109.97
2018-03-04T03:09:18.411Z,105.50
2018-03-04T03:11:46.006Z,95.28
2018-03-04T03:14:13.629Z,99.87
2018-03-04T03:16:41.247Z,95.05
2018-03-04T03:19:08.849Z,80.28
2018-03-04T03:21:36.478Z,74.00
2018-03-04T03:24:04.859Z,65.87
2018-03-04T03:26:33.222Z,66.47
2018-03-04T03:29:00.867Z,88.60
2018-03-04T03:31:28.439Z,88.28
2018-03-04T03:33:56.057Z,83.32
2018-03-04T03:36:23.668Z,95.90
2018-03-04T03:38:51.267Z,87.65
2018-03-04T03:41:18.890Z,101.50
2018-03-04T03:43:46.519Z,99.85
2018-03-04T03:46:14.077Z,89.55
2018-03-04T03:48:41.716Z,74.93
2018-03-04T03:51:09.343Z,89.85
2018-03-04T03:53:36.949Z,92.80
2018-03-04T03:56:04.564Z,94.57
2018-03-04T03:58:32.952Z,99.20
2018-03-04T04:01:01.339Z,85.85
2018-03-04T04:03:28.931Z,84.87
2018-03-04T04:05:56.539Z,71.03
2018-03-04T04:08:24.888Z,54.50
2018-03-04T04:10:52.523Z,52.75
2018-03-04T04:13:20.172Z,55.10
2018-03-04T04:15:47.770Z,63.45
2018-03-04T04:18:15.398Z,57.95
2018-03-04T04:20:43.045Z,69.87
2018-03-04T04:23:10.649Z,73.95
2018-03-04T04:25:38.231Z,79.35
2018-03-04T04:28:05.843Z,84.15
2018-03-04T04:30:33.468Z,99.70
2018-03-04T04:33:01.064Z,95.03
2018-03-04T04:35:28.631Z,93.28
2018-03-04T04:37:56.282Z,81.45
2018-03-04T04:40:23.872Z,89.05
2018-03-04T04:42:51.455Z,94.78
2018-03-04T04:45:19.084Z,100.28
2018-03-04T04:47:46.636Z,108.97
2018-03-04T04:50:14.257Z,97.75
2018-03-04T04:52:41.834Z,88.25
2018-03-04T04:55:09.484Z,94.07
2018-03-04T04:57:37.110Z,80.28
2018-03-04T05:00:04.733Z,75.22
2018-03-04T05:02:44.553Z,85.50
2018-03-04T05:05:12.154Z,97.65
2018-03-04T05:07:51.471Z,87.28
2018-03-04T05:13:15.096Z,88.70
2018-03-04T05:15:42.699Z,88.00
2018-03-04T05:27:03.065Z,105.10
2018-03-04T05:29:30.682Z,123.18
2018-03-04T05:31:59.047Z,130.93
2018-03-04T05:34:26.663Z,151.12
2018-03-04T05:36:54.233Z,156.70
2018-03-04T05:39:21.851Z,134.02
2018-03-04T05:41:49.467Z,132.55
2018-03-04T05:44:34.795Z,134.98
2018-03-04T05:47:02.399Z,105.53
2018-03-04T05:49:29.987Z,113.93
2018-03-04T05:51:57.606Z,143.98
2018-03-04T05:54:26.080Z,126.38
2018-03-04T05:56:53.715Z,136.48
2018-03-04T05:59:21.325Z,118.53
2018-03-04T06:01:48.880Z,140.10
2018-03-04T06:04:16.468Z,130.55
2018-03-04T06:06:44.026Z,122.15
2018-03-04T06:12:23.573Z,108.00
2018-03-04T06:14:51.224Z,110.72
2018-03-04T06:17:18.816Z,93.75
2018-03-04T06:19:47.196Z,94.55
2018-03-04T06:22:15.523Z,120.70
2018-03-04T06:24:43.158Z,118.68
2018-03-04T06:27:10.802Z,120.75
2018-03-04T06:29:39.187Z,103.07
2018-03-04T06:32:07.651Z,125.22
2018-03-04T06:34:35.252Z,124.62
2018-03-04T06:37:02.853Z,167.93
2018-03-04T06:39:30.479Z,152.57
2018-03-04T06:41:58.096Z,150.12
2018-03-04T06:44:25.715Z,146.27
2018-03-04T06:47:11.195Z,158.35
2018-03-04T06:49:38.835Z,177.55
2018-03-04T06:52:06.423Z,206.00
2018-03-04T06:54:34.034Z,188.82
2018-03-04T06:57:01.676Z,164.75
2018-03-04T06:59:30.042Z,157.77
2018-03-04T07:02:16.178Z,144.85
2018-03-04T07:04:43.744Z,137.75
2018-03-04T07:07:11.359Z,143.45
2018-03-04T07:09:38.948Z,254.57
2018-03-04T07:12:07.049Z,108.12
2018-03-04T07:14:34.651Z,89.28
2018-03-04T07:17:02.235Z,85.85
2018-03-04T07:19:33.470Z,80.20
2018-03-04T07:22:01.064Z,94.22
2018-03-04T07:24:28.761Z,94.10
2018-03-04T07:26:56.356Z,73.85
2018-03-04T07:29:24.733Z,66.65
2018-03-04T07:31:53.143Z,53.50
2018-03-04T07:34:20.743Z,56.97
2018-03-04T07:36:48.372Z,49.40
2018-03-04T07:39:15.975Z,46.70
2018-03-04T07:41:43.582Z,44.22
2018-03-04T07:44:11.126Z,43.92
2018-03-04T07:52:36.829Z,32.70
2018-03-04T07:55:04.476Z,28.00
2018-03-04T07:57:32.075Z,27.20
2018-03-04T07:59:59.697Z,27.30
2018-03-04T08:02:27.329Z,27.40
2018-03-04T08:04:54.937Z,27.70
2018-03-04T08:07:41.681Z,21.67
2018-03-04T08:13:21.947Z,23.12
2018-03-04T08:15:50.340Z,23.27
2018-03-04T08:18:18.755Z,23.60
2018-03-04T08:20:47.112Z,19.13
2018-03-04T08:26:57.237Z,17.25
2018-03-04T08:29:24.891Z,17.70
2018-03-04T08:31:52.521Z,17.40
2018-03-04T08:34:20.162Z,16.13
2018-03-04T08:36:48.567Z,13.60
2018-03-04T08:39:16.264Z,12.90
2018-03-04T08:41:43.855Z,14.20
2018-03-04T08:44:12.239Z,13.83
2018-03-04T08:46:40.664Z,15.70
2018-03-04T08:49:08.327Z,15.90
2018-03-04T08:51:35.907Z,16.13
2018-03-04T08:54:03.527Z,16.50
2018-03-04T08:56:31.182Z,15.60
2018-03-04T08:58:58.850Z,16.77
2018-03-04T09:01:26.432Z,14.43
2018-03-04T09:03:54.048Z,17.10
2018-03-04T09:06:21.685Z,17.67
2018-03-04T09:08:49.331Z,18.57
2018-03-04T09:11:16.891Z,16.93
2018-03-04T09:13:44.485Z,14.27
2018-03-04T09:16:12.868Z,12.00
2018-03-04T09:18:40.466Z,17.33
2018-03-04T09:21:08.072Z,13.80
2018-03-04T09:23:41.979Z,16.47
2018-03-04T09:26:09.581Z,13.33
2018-03-04T09:28:37.159Z,14.17
2018-03-04T09:31:04.765Z,14.67
2018-03-04T09:33:33.102Z,14.70
2018-03-04T09:36:00.703Z,12.40
2018-03-04T09:38:28.287Z,11.37
2018-03-04T09:40:55.862Z,12.40
2018-03-04T09:43:23.405Z,10.73
2018-03-04T09:45:51.007Z,9.93
2018-03-04T09:48:26.460Z,10.33
2018-03-04T09:50:54.029Z,9.33
2018-03-04T09:53:21.590Z,9.80
2018-03-04T10:01:51.608Z,9.87
2018-03-04T10:04:19.181Z,10.00
2018-03-04T10:06:46.824Z,11.20
2018-03-04T10:09:14.419Z,10.63
2018-03-04T10:11:42.017Z,9.47
2018-03-04T10:14:09.575Z,9.23
2018-03-04T10:16:37.130Z,9.50
2018-03-04T10:19:05.523Z,8.70
2018-03-04T10:30:17.993Z,9.40
2018-03-04T10:32:45.591Z,9.40
2018-03-04T10:35:13.197Z,8.47
2018-03-04T10:46:38.268Z,8.10
2018-03-04T10:49:05.824Z,7.37
2018-03-04T10:51:33.400Z,7.63
2018-03-04T10:54:00.946Z,8.93
2018-03-04T10:56:28.562Z,8.20
2018-03-04T10:59:11.183Z,7.70
2018-03-04T11:01:44.491Z,7.77
2018-03-04T11:04:12.882Z,3.53
2018-03-04T11:06:41.184Z,3.23
2018-03-04T11:09:08.785Z,3.17
2018-03-04T11:11:36.379Z,3.60
2018-03-04T11:14:04.720Z,5.03
2018-03-04T11:16:32.322Z,5.63
2018-03-04T11:18:59.914Z,4.83
2018-03-04T11:21:27.516Z,5.33
2018-03-04T11:24:02.111Z,3.13
2018-03-04T11:26:33.558Z,4.90
2018-03-04T11:31:55.719Z,7.87
2018-03-04T11:34:23.267Z,3.63
2018-03-04T11:36:50.795Z,4.23
2018-03-04T11:45:21.774Z,5.57
2018-03-04T11:47:49.318Z,5.50
2018-03-04T11:50:17.599Z,3.17
2018-03-04T11:52:45.898Z,4.30
2018-03-04T11:55:13.421Z,6.27
2018-03-04T11:57:41.723Z,2.83
2018-03-04T12:00:09.295Z,3.37
2018-03-04T12:02:36.838Z,2.93
2018-03-04T12:05:04.389Z,2.50
2018-03-04T12:07:31.951Z,3.23
2018-03-04T12:09:59.567Z,4.30
2018-03-04T12:12:27.127Z,3.53
2018-03-04T12:14:54.660Z,2.63
2018-03-04T12:17:22.280Z,2.00
2018-03-04T12:19:50.665Z,2.80
2018-03-04T12:22:18.278Z,3.60
2018-03-04T12:24:45.879Z,2.53
2018-03-04T12:27:14.243Z,2.40
2018-03-04T12:29:42.616Z,3.60
2018-03-04T12:32:10.198Z,3.07
2018-03-04T12:34:38.562Z,3.57
2018-03-04T12:37:06.168Z,4.10
2018-03-04T12:39:35.706Z,4.70
2018-03-04T12:44:57.156Z,3.50
2018-03-04T12:47:24.737Z,5.30
2018-03-04T12:49:53.056Z,3.47
2018-03-04T12:52:20.639Z,3.30
2018-03-04T12:54:48.179Z,3.57
2018-03-04T12:57:15.752Z,4.03
2018-03-04T12:59:43.323Z,4.70
2018-03-04T13:02:10.892Z,5.23
2018-03-04T13:04:38.468Z,3.77
2018-03-04T13:07:06.835Z,3.97
2018-03-04T13:09:35.175Z,3.50
2018-03-04T13:12:16.631Z,2.47
2018-03-04T13:14:44.208Z,3.40
2018-03-04T13:17:11.830Z,2.80
2018-03-04T13:19:39.382Z,3.00
2018-03-04T13:22:07.753Z,3.90
2018-03-04T13:25:01.903Z,5.33
2018-03-04T13:27:29.463Z,5.03
2018-03-04T13:29:57.019Z,3.37
2018-03-04T13:32:24.587Z,5.80
2018-03-04T13:34:52.147Z,6.50
2018-03-04T13:37:19.763Z,3.10
2018-03-04T13:39:47.387Z,3.40
2018-03-04T13:42:14.953Z,4.40
2018-03-04T13:44:43.293Z,4.30
2018-03-04T13:47:10.914Z,2.57
2018-03-04T13:49:38.516Z,3.10
2018-03-04T13:52:06.100Z,3.20
2018-03-04T13:54:33.658Z,4.17
2018-03-04T13:57:01.191Z,2.07
2018-03-04T13:59:28.804Z,8.07
2018-03-04T14:01:57.161Z,3.07
2018-03-04T14:04:24.761Z,3.63
2018-03-04T14:06:52.311Z,2.40
2018-03-04T14:09:19.907Z,3.83
2018-03-04T14:11:47.497Z,3.40
2018-03-04T14:14:38.622Z,2.67
2018-03-04T14:17:07.041Z,4.17
2018-03-04T14:19:34.599Z,4.47
2018-03-04T14:22:02.228Z,2.80
2018-03-04T14:24:30.560Z,8.30
2018-03-04T14:27:04.207Z,3.70
2018-03-04T14:29:31.914Z,4.43
2018-03-04T14:31:59.501Z,4.70
2018-03-04T14:34:27.136Z,4.97
2018-03-04T14:36:54.757Z,4.37
2018-03-04T14:39:22.393Z,6.77
2018-03-04T14:41:49.991Z,6.50
2018-03-04T14:44:17.555Z,5.80
2018-03-04T14:46:45.117Z,7.43
2018-03-04T14:49:12.716Z,3.03
2018-03-04T14:51:40.319Z,4.27
2018-03-04T14:54:07.915Z,4.87
2018-03-04T14:56:35.509Z,3.97
2018-03-04T14:59:03.088Z,7.43
2018-03-04T15:01:31.460Z,5.77
2018-03-04T15:03:59.035Z,5.97
2018-03-04T15:06:26.676Z,5.73
2018-03-04T15:08:54.317Z,11.87
2018-03-04T15:11:21.933Z,8.07
2018-03-04T15:13:49.507Z,7.93
2018-03-04T15:16:17.063Z,5.50
2018-03-04T15:18:44.705Z,42.03
2018-03-04T15:21:12.267Z,8.60
2018-03-04T15:23:47.537Z,8.07
2018-03-04T15:26:15.107Z,5.80
2018-03-04T15:28:42.711Z,6.00
2018-03-04T15:31:11.031Z,7.63
2018-03-04T15:33:38.699Z,7.27
2018-03-04T15:36:06.283Z,9.53
2018-03-04T15:38:33.847Z,11.20
2018-03-04T15:41:01.419Z,11.30
2018-03-04T15:43:29.770Z,6.67
2018-03-04T15:45:57.368Z,7.37
2018-03-04T15:48:24.951Z,5.30
2018-03-04T15:50:52.590Z,5.70
2018-03-04T15:53:20.222Z,4.90
2018-03-04T15:55:47.831Z,5.07
2018-03-04T15:58:15.434Z,5.67
2018-03-04T16:00:43.072Z,5.53
2018-03-04T16:06:05.047Z,10.93
2018-03-04T16:08:32.638Z,6.43
2018-03-04T16:11:00.963Z,8.23
2018-03-04T16:13:28.576Z,6.33
2018-03-04T16:15:56.207Z,8.53
2018-03-04T16:18:23.848Z,9.33
2018-03-04T16:20:51.429Z,6.37
2018-03-04T16:23:19.047Z,10.73
2018-03-04T16:25:46.636Z,8.27
2018-03-04T16:31:08.306Z,7.40
2018-03-04T16:33:36.703Z,9.67
2018-03-04T16:36:04.314Z,7.90
2018-03-04T16:38:31.953Z,8.47
2018-03-04T16:40:59.519Z,8.90
2018-03-04T16:43:27.131Z,12.07
2018-03-04T16:45:55.460Z,18.77
2018-03-04T16:48:23.102Z,11.60
2018-03-04T16:50:50.693Z,11.80
2018-03-04T16:53:18.266Z,12.00
2018-03-04T16:55:45.894Z,21.03
2018-03-04T16:58:13.525Z,14.33
2018-03-04T17:00:41.181Z,12.50
2018-03-04T17:06:13.191Z,13.17
2018-03-04T17:08:48.173Z,14.03
2018-03-04T17:11:35.977Z,14.50
2018-03-04T17:14:04.412Z,18.73
2018-03-04T17:16:32.013Z,15.50
2018-03-04T17:18:59.584Z,20.90
2018-03-04T17:21:27.192Z,18.40
2018-03-04T17:23:54.776Z,12.70
2018-03-04T17:26:22.410Z,15.50
2018-03-04T17:28:54.108Z,18.77
2018-03-04T17:31:21.725Z,19.00
2018-03-04T17:33:50.079Z,22.00
2018-03-04T17:36:17.677Z,21.20
2018-03-04T17:38:45.319Z,19.13
2018-03-04T17:41:13.682Z,14.40
2018-03-04T17:43:42.056Z,16.10
2018-03-04T17:46:09.711Z,15.80
2018-03-04T17:48:37.300Z,14.73
2018-03-04T17:51:05.687Z,75.00
2018-03-04T17:53:33.299Z,16.00
2018-03-04T17:56:22.086Z,15.43
2018-03-04T17:58:50.478Z,19.53
2018-03-04T18:01:18.108Z,17.98
2018-03-04T18:03:45.757Z,15.95
2018-03-04T18:06:13.374Z,16.63
2018-03-04T18:08:41.018Z,21.17
2018-03-04T18:11:09.410Z,18.10
2018-03-04T18:13:36.992Z,23.90
2018-03-04T18:19:05.401Z,27.08
2018-03-04T18:27:24.332Z,20.62
2018-03-04T18:29:51.912Z,24.20
2018-03-04T18:32:19.497Z,20.60
2018-03-04T18:34:50.169Z,22.48
2018-03-04T18:37:17.799Z,20.47
2018-03-04T18:39:45.410Z,83.30
2018-03-04T18:42:17.497Z,35.03
2018-03-04T18:44:45.119Z,37.57
2018-03-04T18:47:12.756Z,33.38
2018-03-04T18:49:40.356Z,28.47
2018-03-04T18:52:08.707Z,25.40
2018-03-04T18:54:36.299Z,23.57
2018-03-04T18:57:04.662Z,28.33
2018-03-04T18:59:32.231Z,21.43
2018-03-04T19:02:00.605Z,25.35
2018-03-04T19:04:28.203Z,25.42
2018-03-04T19:06:55.819Z,27.23
2018-03-04T19:09:23.407Z,28.77
2018-03-04T19:11:51.027Z,47.92
2018-03-04T19:14:18.606Z,28.50
2018-03-04T19:16:46.243Z,52.90
2018-03-04T19:19:13.860Z,32.42
2018-03-04T19:21:41.504Z,28.73
2018-03-04T19:24:09.915Z,32.53
2018-03-04T19:26:37.525Z,32.45
2018-03-04T19:29:05.963Z,31.48
2018-03-04T19:31:33.540Z,35.17
2018-03-04T19:34:01.138Z,54.42
2018-03-04T19:36:29.512Z,43.78
2018-03-04T19:38:57.889Z,56.53
2018-03-04T19:41:26.239Z,36.90
2018-03-04T19:43:53.853Z,30.48
2018-03-04T19:46:21.465Z,27.45
2018-03-04T19:48:49.067Z,26.92
2018-03-04T19:51:16.661Z,30.05
2018-03-04T19:53:44.254Z,33.75
2018-03-04T19:56:11.883Z,26.98
2018-03-04T19:58:39.534Z,26.67
2018-03-04T20:01:07.922Z,21.58
2018-03-04T20:03:35.566Z,24.70
2018-03-04T20:06:03.474Z,21.08
2018-03-04T20:08:31.104Z,22.75
2018-03-04T20:10:58.759Z,30.12
2018-03-04T20:13:26.397Z,23.35
2018-03-04T20:15:54.009Z,24.87
2018-03-04T20:18:21.589Z,26.92
2018-03-04T20:20:49.207Z,32.33
2018-03-04T20:23:16.813Z,27.70
2018-03-04T20:25:44.444Z,32.25
2018-03-04T20:28:12.056Z,30.00
2018-03-04T20:30:39.627Z,33.42
2018-03-04T20:33:07.240Z,33.00
2018-03-04T20:35:34.839Z,32.40
2018-03-04T20:38:02.459Z,32.30
2018-03-04T20:40:30.076Z,31.33
2018-03-04T20:42:57.638Z,31.92
2018-03-04T20:45:25.256Z,31.73
2018-03-04T20:47:53.610Z,33.95
2018-03-04T20:50:21.227Z,31.15
2018-03-04T20:52:48.823Z,29.85
2018-03-04T20:55:16.499Z,35.63
2018-03-04T20:57:44.103Z,33.05
2018-03-04T21:00:11.688Z,34.47
2018-03-04T21:02:39.322Z,34.90
2018-03-04T21:05:06.945Z,33.72
2018-03-04T21:07:34.524Z,34.53
2018-03-04T21:10:02.176Z,34.25
2018-03-04T21:12:29.759Z,32.05
2018-03-04T21:14:58.135Z,31.52
2018-03-04T21:17:26.531Z,27.48
2018-03-04T21:19:54.131Z,30.30
2018-03-04T21:22:21.774Z,27.40
2018-03-04T21:24:49.447Z,28.20
2018-03-04T21:27:17.047Z,24.33
2018-03-04T21:29:45.429Z,31.45
2018-03-04T21:32:13.823Z,26.15
2018-03-04T21:34:42.188Z,81.53
2018-03-04T21:37:10.567Z,66.55
2018-03-04T21:39:38.929Z,25.80
2018-03-04T21:42:06.668Z,31.80
2018-03-04T21:44:34.215Z,27.23
2018-03-04T21:47:01.803Z,27.80
2018-03-04T21:49:29.436Z,26.95
2018-03-04T21:51:57.051Z,34.58
2018-03-04T21:54:25.434Z,27.30
2018-03-04T21:56:53.802Z,27.98
2018-03-04T21:59:22.183Z,25.05
2018-03-04T22:01:50.536Z,29.10
2018-03-04T22:04:18.103Z,29.20
2018-03-04T22:06:45.688Z,30.85
2018-03-04T22:09:14.070Z,33.10
2018-03-04T22:11:41.691Z,31.75
2018-03-04T22:14:09.304Z,34.70
2018-03-04T22:16:36.924Z,35.08
2018-03-04T22:19:04.498Z,37.58
2018-03-04T22:21:32.900Z,49.40
2018-03-04T22:24:00.514Z,44.08
2018-03-04T22:26:28.152Z,34.97
2018-03-04T22:35:00.112Z,29.33
2018-03-04T22:37:28.508Z,27.90
2018-03-04T22:39:56.142Z,28.08
2018-03-04T22:42:24.511Z,33.55
2018-03-04T22:44:52.099Z,28.55
2018-03-04T22:47:19.715Z,24.77
2018-03-04T22:49:47.298Z,30.77
2018-03-04T22:52:15.699Z,25.50
2018-03-04T22:54:43.289Z,21.70
2018-03-04T22:57:10.893Z,24.98
2018-03-04T22:59:38.442Z,26.25
2018-03-04T23:02:06.332Z,33.53
2018-03-04T23:04:34.766Z,22.08
2018-03-04T23:07:02.356Z,23.02
2018-03-04T23:09:29.969Z,24.33
2018-03-04T23:11:58.315Z,25.45
2018-03-04T23:14:26.702Z,27.40
2018-03-04T23:16:54.292Z,23.33
2018-03-04T23:19:21.935Z,23.17
2018-03-04T23:21:49.554Z,24.90
2018-03-04T23:24:17.222Z,26.90
2018-03-04T23:26:45.585Z,24.75
2018-03-04T23:29:13.196Z,24.42
2018-03-04T23:31:40.835Z,22.48
2018-03-04T23:34:09.231Z,20.08
2018-03-04T23:36:36.828Z,20.58
2018-03-04T23:39:04.418Z,20.65
2018-03-04T23:41:32.808Z,21.08
2018-03-04T23:44:01.135Z,16.20
2018-03-04T23:46:28.728Z,22.87
2018-03-04T23:48:56.370Z,18.85
2018-03-04T23:51:23.999Z,17.92
2018-03-04T23:53:51.614Z,13.75
2018-03-04T23:56:19.223Z,13.88
2018-03-04T23:58:46.812Z,14.00
